Terminal Aerodrome Forecast
Issued by NWS Anchorage, AK

Home | Current Version | Previous Version | Text Only | Print | Product List | Glossary On
Versions: 1 2 3 4 5 6 7 8 9 10 11 12 13 14 15 16 17 18 19 20 21 22 23 24 25 26 27 28 29 30 31 32 33 34 35 36 37 38 39 40 41
000
FTAK31 PANC 011456 AAB
TAFANC
TAF AMD
PANC 011456Z 0115/0218 20007KT P6SM SCT070 BKN150
     FM012100 22011KT P6SM SCT040 BKN070
     FM020200 24007KT P6SM -SHRA SCT025 BKN040
     FM020600 VRB05KT 5SM -RA SCT015 BKN030
     FM021600 17005KT P6SM -SHRA SCT030 BKN050=

USA.gov is the U.S. government's official web portal to all federal, state and local government web resources and services.